Time;durP1;ratioP1;P1;durP2;ratioP2;P2;SDS_P1;SDS_P2;PMS_P1;PMS_P2;Temp;Humidity;BMP_temperature;BMP_pressure;BME280_temperature;BME280_humidity;BME280_pressure;Samples;Min_cycle;Max_cycle;Signal;HPM_P1;HPM_P2
2022/10/08 00:00:53;;;;;;;7.78;1.90;;;14.10;82.60;;;;;;5032412;28;20071;-80
2022/10/08 00:03:21;;;;;;;10.63;1.85;;;14.10;82.60;;;;;;5032121;28;20049;-80
2022/10/08 00:06:00;;;;;;;10.82;1.88;;;14.20;83.20;;;;;;5032467;28;20474;-79
2022/10/08 00:08:28;;;;;;;11.73;1.80;;;14.10;83.20;;;;;;5032322;28;20047;-79
2022/10/08 00:11:02;;;;;;;8.35;1.45;;;14.10;83.40;;;;;;5032372;28;20018;-79
2022/10/08 00:13:39;;;;;;;9.70;1.73;;;14.10;83.40;;;;;;5031320;28;20024;-80
2022/10/08 00:16:11;;;;;;;9.80;1.95;;;14.20;83.90;;;;;;5016266;28;20103;-80
2022/10/08 00:18:38;;;;;;;12.52;1.80;;;14.10;83.70;;;;;;5012466;28;20025;-79
2022/10/08 00:21:13;;;;;;;9.50;1.90;;;14.20;84.20;;;;;;5029063;28;20068;-80
2022/10/08 00:23:39;;;;;;;10.73;2.00;;;14.10;84.30;;;;;;5028995;28;20557;-79
2022/10/08 00:26:06;;;;;;;8.65;2.00;;;14.20;84.80;;;;;;5012905;28;20106;-79
2022/10/08 00:28:33;;;;;;;7.60;1.65;;;14.10;85.10;;;;;;5012250;28;20022;-79
2022/10/08 00:31:08;;;;;;;10.50;1.70;;;14.10;84.90;;;;;;5012783;28;20030;-80
2022/10/08 00:33:37;;;;;;;8.48;1.65;;;14.10;85.60;;;;;;5014142;28;20024;-79
2022/10/08 00:36:09;;;;;;;11.80;2.47;;;14.10;85.30;;;;;;5014064;28;20038;-80
2022/10/08 00:38:35;;;;;;;10.68;1.80;;;14.20;85.30;;;;;;5013809;28;20026;-77
2022/10/08 00:41:04;;;;;;;13.45;2.42;;;14.20;85.70;;;;;;5029060;28;20073;-78
2022/10/08 00:43:44;;;;;;;15.98;1.95;;;14.20;85.90;;;;;;5012611;28;20498;-79
2022/10/08 00:46:38;;;;;;;10.88;1.83;;;14.10;86.00;;;;;;5028713;28;20026;-78
2022/10/08 00:49:11;;;;;;;12.40;2.05;;;14.20;86.50;;;;;;5026639;28;20034;-80
2022/10/08 00:51:55;;;;;;;14.32;3.42;;;14.10;86.60;;;;;;5013687;28;20030;-79
2022/10/08 00:54:22;;;;;;;10.57;2.40;;;14.10;87.20;;;;;;5012323;28;20026;-79
2022/10/08 00:56:52;;;;;;;18.17;2.42;;;14.10;87.10;;;;;;5013675;28;20037;-79
2022/10/08 00:59:19;;;;;;;12.48;2.55;;;14.10;87.60;;;;;;5013781;28;20033;-80
2022/10/08 01:01:45;;;;;;;10.52;2.22;;;14.10;88.20;;;;;;5012673;28;20117;-79
2022/10/08 01:04:12;;;;;;;8.05;2.10;;;14.10;88.60;;;;;;5012223;28;20057;-79
2022/10/08 01:07:05;;;;;;;11.20;2.35;;;14.10;89.00;;;;;;5012325;28;20390;-78
2022/10/08 01:09:52;;;;;;;13.43;2.22;;;14.00;89.30;;;;;;5028637;28;20029;-79
2022/10/08 01:12:45;;;;;;;14.73;3.15;;;14.00;90.00;;;;;;5028890;28;20025;-78
2022/10/08 01:15:26;;;;;;;11.43;2.85;;;13.90;90.60;;;;;;5028144;28;20389;-79
2022/10/08 01:18:01;;;;;;;11.70;2.28;;;13.90;91.00;;;;;;5020881;28;20022;-79
2022/10/08 01:20:30;;;;;;;12.13;2.60;;;13.80;91.20;;;;;;5013198;28;20030;-79
2022/10/08 01:23:17;;;;;;;11.65;2.72;;;13.70;91.70;;;;;;5013134;28;20104;-81
2022/10/08 01:26:05;;;;;;;12.60;2.67;;;13.70;91.70;;;;;;5011898;28;20034;-80
2022/10/08 01:28:44;;;;;;;10.82;2.30;;;13.70;91.90;;;;;;5012012;28;20022;-81
2022/10/08 01:31:23;;;;;;;8.02;2.10;;;13.60;92.20;;;;;;5013721;28;20018;-80
2022/10/08 01:33:54;;;;;;;7.10;1.77;;;13.60;92.30;;;;;;5012255;28;20022;-80
2022/10/08 01:36:22;;;;;;;8.35;1.88;;;13.60;92.50;;;;;;5012637;28;20030;-80
2022/10/08 01:38:53;;;;;;;12.57;1.65;;;13.50;92.60;;;;;;5015314;28;20034;-80
2022/10/08 01:41:21;;;;;;;8.65;1.60;;;13.60;92.50;;;;;;5015467;28;20121;-79
2022/10/08 01:44:17;;;;;;;9.57;1.80;;;13.50;92.90;;;;;;5015414;28;20062;-79
2022/10/08 01:46:45;;;;;;;5.63;1.33;;;13.50;92.80;;;;;;5016140;28;20060;-79
2022/10/08 01:49:16;;;;;;;6.03;1.63;;;13.50;92.90;;;;;;5015094;28;20021;-79
2022/10/08 01:51:50;;;;;;;6.18;1.52;;;13.50;93.00;;;;;;5016308;28;20014;-79
2022/10/08 01:54:16;;;;;;;13.88;2.20;;;13.50;93.00;;;;;;5016383;28;20026;-79
2022/10/08 01:56:44;;;;;;;9.52;1.77;;;13.50;93.20;;;;;;5051213;28;20025;-79
2022/10/08 01:59:22;;;;;;;6.88;2.53;;;13.50;93.50;;;;;;5034359;28;20144;-78
2022/10/08 02:01:57;;;;;;;6.38;2.40;;;13.50;93.60;;;;;;5051081;28;20026;-79
2022/10/08 02:04:34;;;;;;;11.23;3.00;;;13.50;93.80;;;;;;5050836;28;20446;-83
2022/10/08 02:07:16;;;;;;;10.65;3.90;;;13.40;93.80;;;;;;5051453;28;20084;-82
2022/10/08 02:09:45;;;;;;;11.07;4.22;;;13.50;94.20;;;;;;5036311;28;20021;-82
2022/10/08 02:12:13;;;;;;;12.93;4.05;;;13.40;94.50;;;;;;5051034;28;20044;-81
2022/10/08 02:14:49;;;;;;;9.50;3.97;;;13.40;94.70;;;;;;5050960;28;20026;-82
2022/10/08 02:17:42;;;;;;;9.55;4.30;;;13.30;94.80;;;;;;5035565;28;20087;-83
2022/10/08 02:20:19;;;;;;;15.75;4.75;;;13.30;95.10;;;;;;5035396;28;20049;-83
2022/10/08 02:23:23;;;;;;;11.88;4.93;;;13.30;95.20;;;;;;5050755;28;20017;-81
2022/10/08 02:25:53;;;;;;;12.23;5.40;;;13.30;95.70;;;;;;5050755;28;20029;-82
2022/10/08 02:28:27;;;;;;;10.60;4.50;;;13.30;95.90;;;;;;5050753;28;20554;-84
2022/10/08 02:31:09;;;;;;;13.88;4.65;;;13.30;96.10;;;;;;5050565;28;20124;-82
2022/10/08 02:34:16;;;;;;;12.45;5.38;;;13.30;96.70;;;;;;5050629;28;20462;-82
2022/10/08 02:36:46;;;;;;;11.93;4.03;;;13.20;96.70;;;;;;5043738;28;20053;-82
2022/10/08 02:39:15;;;;;;;10.38;4.30;;;13.30;96.70;;;;;;5050743;28;20363;-83
2022/10/08 02:41:52;;;;;;;13.52;4.45;;;13.30;96.80;;;;;;5050473;28;20009;-83
2022/10/08 02:44:35;;;;;;;10.25;3.88;;;13.30;97.00;;;;;;5050246;28;20108;-84
2022/10/08 02:47:04;;;;;;;16.53;5.30;;;13.30;97.10;;;;;;5035026;28;20075;-82
2022/10/08 02:49:33;;;;;;;10.90;4.70;;;13.30;97.20;;;;;;5034371;28;20772;-83
2022/10/08 02:52:00;;;;;;;13.25;4.72;;;13.30;97.20;;;;;;5050219;28;20060;-81
2022/10/08 02:54:33;;;;;;;12.70;4.82;;;13.30;97.60;;;;;;5033850;28;20032;-82
2022/10/08 02:57:25;;;;;;;11.18;4.03;;;13.30;97.60;;;;;;5033817;28;20124;-82
2022/10/08 02:59:51;;;;;;;12.93;4.13;;;13.30;97.60;;;;;;5035193;28;20113;-82
2022/10/08 03:02:38;;;;;;;11.55;3.90;;;13.20;97.60;;;;;;5034458;28;20033;-83
2022/10/08 03:05:08;;;;;;;16.15;4.88;;;13.30;97.70;;;;;;5035073;28;20120;-83
2022/10/08 03:07:34;;;;;;;10.82;4.43;;;13.20;97.80;;;;;;5036416;28;20021;-82
2022/10/08 03:10:05;;;;;;;13.20;4.30;;;13.20;97.90;;;;;;5036770;28;20026;-83
2022/10/08 03:12:33;;;;;;;10.65;4.25;;;13.20;98.10;;;;;;5036190;28;20436;-83
2022/10/08 03:14:59;;;;;;;13.25;4.38;;;13.20;98.20;;;;;;5035905;28;20108;-83
2022/10/08 03:17:30;;;;;;;10.07;3.38;;;13.20;98.20;;;;;;5020162;28;20112;-82
2022/10/08 03:19:56;;;;;;;14.93;4.55;;;13.10;98.30;;;;;;5036416;28;20021;-81
2022/10/08 03:22:23;;;;;;;8.65;4.00;;;13.10;98.60;;;;;;5020079;28;20028;-82
2022/10/08 03:24:49;;;;;;;11.32;3.53;;;13.10;98.50;;;;;;5019775;28;20028;-83
2022/10/08 03:27:14;;;;;;;9.95;3.65;;;13.10;98.60;;;;;;5036513;28;20021;-82
2022/10/08 03:29:40;;;;;;;7.55;3.33;;;13.10;98.70;;;;;;5036380;28;20039;-82
2022/10/08 03:32:08;;;;;;;10.48;3.55;;;13.10;98.60;;;;;;5054202;28;20067;-81
2022/10/08 03:34:34;;;;;;;9.02;3.25;;;13.10;98.70;;;;;;5054119;28;20021;-82
2022/10/08 03:37:00;;;;;;;7.63;3.13;;;13.00;98.70;;;;;;5036492;28;20048;-81
2022/10/08 03:39:25;;;;;;;10.43;3.17;;;13.00;98.90;;;;;;5019624;28;20029;-83
2022/10/08 03:41:51;;;;;;;12.00;3.10;;;13.00;98.90;;;;;;5036212;28;20025;-83
2022/10/08 03:44:16;;;;;;;11.43;3.63;;;12.90;98.80;;;;;;5019744;28;20057;-82
2022/10/08 03:46:42;;;;;;;8.73;3.83;;;12.90;98.80;;;;;;5035949;28;20032;-83
2022/10/08 03:49:07;;;;;;;13.75;4.05;;;12.90;99.00;;;;;;5035856;28;20013;-82
2022/10/08 03:51:33;;;;;;;13.27;3.45;;;12.90;99.10;;;;;;5035979;28;20032;-83
2022/10/08 03:53:59;;;;;;;8.43;3.00;;;12.90;99.10;;;;;;5053561;28;20033;-82
2022/10/08 03:56:25;;;;;;;8.00;3.78;;;12.90;99.10;;;;;;5019362;28;20032;-82
2022/10/08 03:58:55;;;;;;;10.00;3.10;;;12.90;99.20;;;;;;5035842;28;20029;-83
2022/10/08 04:01:22;;;;;;;12.50;3.20;;;12.90;99.60;;;;;;5035535;28;20032;-83
2022/10/08 04:03:48;;;;;;;10.02;3.30;;;12.80;99.30;;;;;;5035179;28;20037;-83
2022/10/08 04:06:14;;;;;;;9.95;3.28;;;12.90;99.30;;;;;;5035718;28;20078;-84
2022/10/08 04:08:39;;;;;;;10.02;3.33;;;12.80;99.40;;;;;;5019250;28;20388;-83
2022/10/08 04:11:07;;;;;;;7.72;3.63;;;12.80;99.40;;;;;;5053474;28;20025;-84
2022/10/08 04:13:34;;;;;;;12.55;4.07;;;12.70;99.40;;;;;;5035540;28;20017;-83
2022/10/08 04:16:06;;;;;;;7.75;2.97;;;12.80;99.40;;;;;;5035521;28;20491;-83
2022/10/08 04:18:32;;;;;;;9.35;3.17;;;12.70;99.30;;;;;;5035464;28;20028;-83
2022/10/08 04:21:06;;;;;;;6.95;3.22;;;12.70;99.20;;;;;;5053326;28;20025;-83
2022/10/08 04:23:34;;;;;;;10.73;3.78;;;12.60;99.20;;;;;;5035244;28;20024;-83
2022/10/08 04:26:00;;;;;;;8.73;3.30;;;12.60;99.40;;;;;;5035347;28;20083;-84
2022/10/08 04:28:26;;;;;;;10.82;3.22;;;12.50;99.40;;;;;;5019055;28;20025;-83
2022/10/08 04:31:00;;;;;;;9.35;3.53;;;12.50;99.60;;;;;;5035384;28;20024;-81
2022/10/08 04:33:28;;;;;;;11.07;4.18;;;12.50;99.70;;;;;;5035293;28;20021;-84
2022/10/08 04:35:54;;;;;;;10.30;4.18;;;12.50;99.90;;;;;;5035373;28;20021;-84
2022/10/08 04:38:20;;;;;;;12.35;4.38;;;12.50;99.90;;;;;;5035358;28;20473;-84
2022/10/08 04:40:46;;;;;;;13.77;4.05;;;12.60;99.90;;;;;;5035553;28;20079;-83
2022/10/08 04:43:12;;;;;;;8.73;3.78;;;12.60;99.90;;;;;;5053169;28;20025;-83
2022/10/08 04:45:45;;;;;;;9.60;3.85;;;12.50;99.90;;;;;;5018847;28;20025;-83
2022/10/08 04:48:13;;;;;;;12.95;3.47;;;12.60;99.90;;;;;;5035125;28;20017;-83
2022/10/08 04:50:39;;;;;;;12.07;4.35;;;12.60;99.90;;;;;;5035026;28;20053;-83
2022/10/08 04:53:06;;;;;;;12.05;4.47;;;12.60;99.90;;;;;;5052986;28;20473;-83
2022/10/08 04:55:32;;;;;;;13.57;4.78;;;12.60;99.90;;;;;;5052947;28;20036;-82
2022/10/08 04:57:58;;;;;;;11.75;4.53;;;12.60;99.90;;;;;;5018785;28;20427;-82
2022/10/08 05:00:23;;;;;;;12.35;4.38;;;12.60;99.90;;;;;;5052525;28;20021;-83
2022/10/08 05:02:50;;;;;;;11.50;4.43;;;12.60;99.90;;;;;;5031677;28;20128;-83
2022/10/08 05:05:15;;;;;;;10.63;4.20;;;12.60;99.90;;;;;;5032885;28;20376;-83
2022/10/08 05:07:41;;;;;;;13.07;4.28;;;12.60;99.90;;;;;;5031885;28;20013;-83
2022/10/08 05:10:07;;;;;;;9.80;3.95;;;12.60;99.90;;;;;;5015044;28;20025;-83
2022/10/08 05:12:33;;;;;;;12.07;4.53;;;12.60;99.90;;;;;;5015505;28;20029;-82
2022/10/08 05:15:01;;;;;;;10.68;4.32;;;12.60;99.90;;;;;;5018926;28;20034;-83
2022/10/08 05:17:26;;;;;;;7.60;3.92;;;12.70;99.90;;;;;;5036565;28;20026;-80
2022/10/08 05:19:52;;;;;;;15.23;5.35;;;12.70;99.90;;;;;;5018855;28;20036;-80
2022/10/08 05:22:18;;;;;;;9.07;3.53;;;12.70;99.90;;;;;;5035314;28;20029;-80
2022/10/08 05:24:43;;;;;;;10.73;4.70;;;12.70;99.90;;;;;;5018777;28;20037;-80
2022/10/08 05:27:09;;;;;;;13.52;4.85;;;12.80;99.90;;;;;;5035125;28;20181;-79
2022/10/08 05:29:35;;;;;;;9.32;3.50;;;12.70;99.90;;;;;;5018701;28;20022;-80
2022/10/08 05:32:01;;;;;;;10.77;3.90;;;12.70;99.90;;;;;;5017410;28;20040;-80
2022/10/08 05:34:26;;;;;;;12.07;5.22;;;12.70;99.90;;;;;;5034293;28;20064;-80
2022/10/08 05:36:52;;;;;;;12.35;5.30;;;12.70;99.90;;;;;;5022427;28;20529;-80
2022/10/08 05:39:18;;;;;;;13.13;4.65;;;12.70;99.90;;;;;;5034904;28;20083;-80
2022/10/08 05:41:44;;;;;;;9.15;5.38;;;12.80;99.90;;;;;;5034753;28;20034;-80
2022/10/08 05:44:10;;;;;;;10.25;5.07;;;12.80;99.90;;;;;;5033801;28;20087;-80
2022/10/08 05:46:37;;;;;;;13.55;5.05;;;12.80;99.90;;;;;;5035307;28;20522;-81
2022/10/08 05:49:05;;;;;;;8.43;4.07;;;12.80;99.90;;;;;;5034554;28;20155;-80
2022/10/08 05:51:30;;;;;;;12.02;4.75;;;12.80;99.90;;;;;;5034948;28;20017;-81
2022/10/08 05:53:58;;;;;;;12.05;5.25;;;12.80;99.90;;;;;;5034919;28;20022;-80
2022/10/08 05:56:25;;;;;;;12.13;4.50;;;12.80;99.90;;;;;;5034825;28;20036;-80
2022/10/08 05:58:52;;;;;;;13.82;5.75;;;12.80;99.90;;;;;;5035183;28;20027;-79
2022/10/08 06:01:19;;;;;;;12.50;5.43;;;12.80;99.90;;;;;;5035229;28;20026;-80
2022/10/08 06:03:49;;;;;;;10.68;5.43;;;12.80;99.90;;;;;;5048172;28;20106;-83
2022/10/08 06:06:15;;;;;;;13.85;5.38;;;12.80;99.90;;;;;;5038109;28;20504;-84
2022/10/08 06:08:40;;;;;;;15.35;6.00;;;12.70;99.90;;;;;;5020986;28;20029;-84
2022/10/08 06:11:38;;;;;;;11.85;5.60;;;12.70;99.90;;;;;;5037378;28;20036;-81
2022/10/08 06:14:23;;;;;;;14.30;6.40;;;12.70;99.90;;;;;;5030854;28;20033;-83
2022/10/08 06:16:48;;;;;;;17.90;7.45;;;12.70;99.90;;;;;;5032012;28;20188;-80
2022/10/08 06:19:14;;;;;;;15.80;7.03;;;12.70;99.90;;;;;;5001578;28;20132;-80
2022/10/08 06:21:40;;;;;;;11.90;6.63;;;12.70;99.90;;;;;;5001576;28;20064;-79
2022/10/08 06:24:08;;;;;;;15.32;7.32;;;12.70;99.90;;;;;;5020756;28;20033;-80
2022/10/08 06:26:37;;;;;;;13.43;6.47;;;12.70;99.90;;;;;;5010801;28;20033;-80
2022/10/08 06:29:05;;;;;;;14.10;6.95;;;12.60;99.90;;;;;;5026199;28;20420;-79
2022/10/08 06:31:31;;;;;;;13.68;6.35;;;12.60;99.90;;;;;;5043937;28;20021;-81
2022/10/08 06:33:57;;;;;;;15.02;7.63;;;12.60;99.90;;;;;;5038086;28;20063;-80
2022/10/08 06:36:25;;;;;;;14.75;7.30;;;12.50;99.90;;;;;;5001024;28;20033;-80
2022/10/08 06:38:56;;;;;;;15.45;6.65;;;12.50;99.90;;;;;;5035210;28;20051;-80
2022/10/08 06:41:22;;;;;;;11.32;6.93;;;12.50;99.90;;;;;;5017533;28;20033;-80
2022/10/08 06:43:48;;;;;;;12.93;7.32;;;12.40;99.90;;;;;;5017509;28;20393;-80
2022/10/08 06:46:14;;;;;;;20.83;8.38;;;12.40;99.90;;;;;;5001129;28;20037;-80
2022/10/08 06:48:39;;;;;;;17.30;8.27;;;12.40;99.90;;;;;;5035009;28;20036;-80
2022/10/08 06:51:13;;;;;;;14.90;8.05;;;12.30;99.90;;;;;;5017427;28;20061;-79
2022/10/08 06:53:40;;;;;;;13.50;8.25;;;12.30;99.90;;;;;;5035052;28;20021;-79
2022/10/08 06:56:13;;;;;;;14.13;8.18;;;12.30;99.90;;;;;;5016987;28;20489;-80
2022/10/08 06:58:40;;;;;;;18.83;8.90;;;12.30;99.90;;;;;;5017270;28;20025;-79
2022/10/08 07:01:08;;;;;;;16.02;9.15;;;12.20;99.90;;;;;;5034744;28;20290;-80
2022/10/08 07:03:35;;;;;;;16.85;8.07;;;12.20;99.90;;;;;;5016816;28;20046;-80
2022/10/08 07:06:06;;;;;;;15.27;8.85;;;12.30;99.90;;;;;;5016881;28;20116;-80
2022/10/08 07:08:32;;;;;;;15.77;8.52;;;12.20;99.90;;;;;;5034488;28;20097;-80
2022/10/08 07:11:16;;;;;;;15.68;8.07;;;12.20;99.90;;;;;;4984387;28;20022;-79
2022/10/08 07:13:42;;;;;;;17.95;8.93;;;12.20;99.90;;;;;;5016891;28;20023;-81
2022/10/08 07:16:18;;;;;;;17.55;8.80;;;12.20;99.90;;;;;;5000436;28;20033;-80
2022/10/08 07:18:45;;;;;;;15.60;8.07;;;12.20;99.90;;;;;;5016707;28;20031;-79
2022/10/08 07:21:12;;;;;;;16.33;7.93;;;12.30;99.90;;;;;;5000364;28;20389;-80
2022/10/08 07:23:38;;;;;;;20.80;9.15;;;12.20;99.90;;;;;;5016869;28;20033;-80
2022/10/08 07:26:11;;;;;;;17.55;7.75;;;12.40;99.90;;;;;;5016764;28;20116;-80
2022/10/08 07:28:41;;;;;;;18.50;8.77;;;12.30;99.90;;;;;;5021885;28;20022;-80
2022/10/08 07:31:13;;;;;;;15.88;7.18;;;12.30;99.90;;;;;;5021942;28;20434;-80
2022/10/08 07:33:39;;;;;;;14.65;7.43;;;12.30;99.90;;;;;;5016388;28;20022;-80
2022/10/08 07:36:16;;;;;;;12.07;6.57;;;12.40;99.90;;;;;;5016549;28;20052;-80
2022/10/08 07:38:43;;;;;;;15.38;7.43;;;12.40;99.90;;;;;;5034244;28;20381;-80
2022/10/08 07:41:10;;;;;;;12.63;5.93;;;12.40;99.90;;;;;;5000441;28;20071;-81
2022/10/08 07:43:39;;;;;;;17.40;6.63;;;12.50;99.90;;;;;;5016729;28;20386;-80
2022/10/08 07:46:06;;;;;;;15.18;6.13;;;12.50;99.90;;;;;;5000820;28;20509;-80
2022/10/08 07:48:32;;;;;;;12.65;6.38;;;12.60;99.90;;;;;;5000202;28;20025;-79
2022/10/08 07:51:14;;;;;;;15.82;6.38;;;12.60;99.90;;;;;;5034185;28;20121;-80
2022/10/08 07:53:40;;;;;;;12.93;5.65;;;12.60;99.90;;;;;;5033965;28;20029;-80
2022/10/08 07:56:08;;;;;;;14.50;5.25;;;12.70;99.90;;;;;;5015999;28;20048;-79
2022/10/08 07:58:34;;;;;;;11.88;4.35;;;12.60;99.90;;;;;;5016397;28;20034;-79
2022/10/08 08:01:02;;;;;;;15.70;4.32;;;12.70;99.90;;;;;;5016355;28;20025;-80
2022/10/08 08:03:28;;;;;;;12.77;3.38;;;12.80;99.90;;;;;;5033482;28;20053;-80
2022/10/08 08:06:02;;;;;;;10.18;2.60;;;12.80;99.90;;;;;;5016082;28;20421;-80
2022/10/08 08:08:28;;;;;;;7.15;1.77;;;12.90;99.90;;;;;;5033783;28;20097;-80
2022/10/08 08:10:57;;;;;;;9.35;2.38;;;12.90;99.90;;;;;;4983637;28;20168;-80
2022/10/08 08:13:24;;;;;;;9.82;2.10;;;12.90;99.90;;;;;;5016256;28;20073;-80
2022/10/08 08:16:07;;;;;;;8.60;1.92;;;13.00;99.90;;;;;;5015731;28;20033;-81
2022/10/08 08:18:38;;;;;;;11.13;1.67;;;13.10;99.90;;;;;;5015728;28;20030;-80
2022/10/08 08:21:07;;;;;;;7.95;1.42;;;13.10;99.90;;;;;;5015590;28;20025;-79
2022/10/08 08:23:35;;;;;;;5.63;0.88;;;13.20;99.90;;;;;;5015655;28;20479;-80
2022/10/08 08:26:02;;;;;;;9.05;1.77;;;13.20;99.90;;;;;;5015436;28;20107;-80
2022/10/08 08:28:28;;;;;;;7.82;1.05;;;13.30;99.70;;;;;;5016002;28;20083;-79
2022/10/08 08:30:56;;;;;;;8.98;1.38;;;13.30;99.70;;;;;;5015622;28;20029;-80
2022/10/08 08:33:22;;;;;;;5.25;0.85;;;13.40;98.60;;;;;;5015537;28;20045;-79
2022/10/08 08:35:54;;;;;;;7.13;1.00;;;13.40;98.20;;;;;;4999689;28;20079;-80
2022/10/08 08:38:20;;;;;;;8.20;0.90;;;13.50;97.80;;;;;;5015500;28;20077;-80
2022/10/08 08:40:46;;;;;;;7.28;0.88;;;13.60;97.60;;;;;;5033108;28;20043;-78
2022/10/08 08:43:12;;;;;;;7.88;1.40;;;13.60;97.00;;;;;;5015543;28;20080;-80
2022/10/08 08:45:40;;;;;;;5.78;0.90;;;13.60;97.10;;;;;;4999336;28;20381;-79
2022/10/08 08:48:15;;;;;;;6.93;0.70;;;13.70;96.70;;;;;;5000158;28;20033;-78
2022/10/08 08:50:42;;;;;;;6.05;0.60;;;13.70;96.20;;;;;;5019942;28;20478;-79
2022/10/08 08:53:09;;;;;;;7.32;1.00;;;13.80;95.80;;;;;;5037334;28;20026;-78
2022/10/08 08:55:41;;;;;;;7.55;1.23;;;13.80;95.50;;;;;;5010137;28;20080;-79
2022/10/08 08:58:33;;;;;;;7.22;0.60;;;13.90;95.10;;;;;;5037346;28;20026;-79
2022/10/08 09:01:18;;;;;;;7.68;1.00;;;13.90;94.50;;;;;;5037015;28;20060;-79
2022/10/08 09:03:52;;;;;;;8.15;0.70;;;14.00;94.10;;;;;;5019737;28;20102;-79
2022/10/08 09:06:22;;;;;;;5.38;0.50;;;14.00;94.10;;;;;;5019042;28;20072;-80
2022/10/08 09:08:50;;;;;;;7.03;0.60;;;14.10;93.60;;;;;;5036726;28;20028;-78
2022/10/08 09:11:19;;;;;;;8.10;0.70;;;14.10;93.00;;;;;;5018890;28;20224;-78
2022/10/08 09:14:08;;;;;;;11.18;1.13;;;14.10;92.20;;;;;;5019099;28;20013;-81
2022/10/08 09:16:34;;;;;;;8.80;0.95;;;14.20;91.80;;;;;;5036770;28;20228;-78
2022/10/08 09:19:00;;;;;;;6.20;0.70;;;14.20;91.20;;;;;;5018726;28;20026;-79
2022/10/08 09:21:30;;;;;;;6.93;0.55;;;14.20;91.00;;;;;;5018985;28;20032;-79
2022/10/08 09:23:56;;;;;;;8.38;0.75;;;14.20;90.90;;;;;;5018697;28;20021;-79
2022/10/08 09:26:24;;;;;;;6.97;1.05;;;14.30;90.00;;;;;;5002216;28;20393;-79
2022/10/08 09:28:52;;;;;;;7.50;0.80;;;14.30;90.20;;;;;;5018806;28;20025;-81
2022/10/08 09:31:21;;;;;;;6.07;1.00;;;14.40;90.20;;;;;;5018874;28;20378;-77
2022/10/08 09:33:56;;;;;;;8.02;0.82;;;14.50;90.20;;;;;;5018520;28;20021;-77
2022/10/08 09:36:52;;;;;;;8.75;0.80;;;14.60;89.60;;;;;;5018978;28;20100;-79
2022/10/08 09:39:24;;;;;;;8.38;1.00;;;14.80;88.70;;;;;;5017563;28;20112;-79
2022/10/08 09:42:13;;;;;;;9.38;0.77;;;15.00;87.80;;;;;;5018251;28;20017;-80
2022/10/08 09:44:56;;;;;;;9.05;0.60;;;15.30;86.20;;;;;;5036058;28;20032;-80
2022/10/08 09:47:24;;;;;;;6.15;0.80;;;15.50;84.40;;;;;;5018242;28;20021;-80
2022/10/08 09:50:04;;;;;;;3.40;0.50;;;15.70;83.10;;;;;;5018117;28;20024;-79
2022/10/08 09:52:30;;;;;;;4.75;0.85;;;15.90;82.20;;;;;;5018095;28;20026;-77
2022/10/08 09:55:07;;;;;;;6.93;0.90;;;16.10;81.90;;;;;;5002063;28;20083;-77
2022/10/08 09:57:43;;;;;;;4.20;0.60;;;16.50;80.80;;;;;;5035856;28;20049;-76
2022/10/08 10:00:34;;;;;;;8.77;0.70;;;17.00;79.80;;;;;;5016795;28;20025;-80
2022/10/08 10:03:01;;;;;;;5.53;0.70;;;17.10;76.80;;;;;;5036013;28;20128;-79
2022/10/08 10:05:30;;;;;;;5.53;0.60;;;17.00;76.50;;;;;;5018164;28;20025;-79
2022/10/08 10:07:56;;;;;;;5.25;0.70;;;16.90;75.30;;;;;;5018111;28;20112;-78
2022/10/08 10:10:39;;;;;;;4.57;0.70;;;16.70;75.00;;;;;;5018193;28;20486;-78
2022/10/08 10:13:12;;;;;;;2.22;0.40;;;16.60;76.30;;;;;;5017780;28;20026;-79
2022/10/08 10:15:48;;;;;;;6.05;0.55;;;16.40;75.80;;;;;;5018191;28;20064;-80
2022/10/08 10:18:19;;;;;;;5.68;0.65;;;16.20;76.30;;;;;;5054825;28;20115;-79
2022/10/08 10:20:49;;;;;;;5.65;0.60;;;16.10;76.90;;;;;;5055833;28;20029;-79
2022/10/08 10:24:01;;;;;;;7.57;0.90;;;16.20;78.50;;;;;;5055573;28;20483;-79
2022/10/08 10:26:32;;;;;;;10.50;1.15;;;16.90;80.50;;;;;;5033807;28;20420;-81
2022/10/08 10:29:07;;;;;;;4.53;0.70;;;18.00;81.40;;;;;;5055509;28;20044;-79
2022/10/08 10:31:38;;;;;;;4.63;0.45;;;18.40;77.40;;;;;;5037936;28;20021;-79
2022/10/08 10:34:13;;;;;;;6.22;0.70;;;18.30;75.30;;;;;;5055617;28;20103;-78
2022/10/08 10:36:50;;;;;;;5.78;0.80;;;18.10;73.90;;;;;;5055631;28;20533;-78
2022/10/08 10:39:50;;;;;;;6.82;0.77;;;17.90;73.00;;;;;;5055537;28;20427;-78
2022/10/08 10:42:16;;;;;;;7.18;0.80;;;17.60;71.70;;;;;;5055450;28;20163;-78
2022/10/08 10:44:57;;;;;;;6.25;0.77;;;17.20;71.90;;;;;;5037360;28;20125;-77
2022/10/08 10:47:27;;;;;;;5.45;0.45;;;16.80;73.20;;;;;;5054204;28;20053;-78
2022/10/08 10:49:53;;;;;;;6.07;0.77;;;16.50;74.30;;;;;;5037469;28;20395;-78
2022/10/08 10:52:54;;;;;;;9.75;1.40;;;16.30;76.00;;;;;;5037330;28;20108;-77
2022/10/08 10:55:31;;;;;;;7.70;0.82;;;16.00;77.10;;;;;;4983405;28;20120;-79
2022/10/08 10:58:15;;;;;;;4.22;0.93;;;15.80;78.50;;;;;;5053581;28;20492;-79
2022/10/08 11:00:46;;;;;;;6.75;0.95;;;15.70;79.70;;;;;;5036107;28;20029;-79
2022/10/08 11:03:37;;;;;;;6.45;1.70;;;15.70;80.50;;;;;;5053448;28;20048;-79
2022/10/08 11:06:30;;;;;;;10.48;3.17;;;15.80;80.60;;;;;;5035546;28;20029;-79
2022/10/08 11:09:25;;;;;;;6.47;2.30;;;16.40;82.90;;;;;;5036450;28;20020;-82
2022/10/08 11:11:56;;;;;;;5.50;1.50;;;17.40;84.20;;;;;;5040284;28;20040;-81
2022/10/08 11:14:43;;;;;;;5.60;1.33;;;18.50;83.60;;;;;;5026212;28;20025;-81
2022/10/08 11:17:21;;;;;;;4.20;0.98;;;19.50;80.60;;;;;;5060975;28;20105;-83
2022/10/08 11:20:16;;;;;;;4.18;0.98;;;20.40;79.30;;;;;;5036386;28;20496;-82
2022/10/08 11:22:52;;;;;;;6.78;0.50;;;21.30;77.40;;;;;;5032418;28;20075;-81
2022/10/08 11:25:37;;;;;;;5.40;0.70;;;22.20;72.00;;;;;;5036317;28;20032;-80
2022/10/08 11:28:18;;;;;;;5.13;0.60;;;22.70;68.90;;;;;;5036151;28;20028;-82
2022/10/08 11:30:58;;;;;;;6.32;0.70;;;23.30;65.70;;;;;;5036409;28;20112;-82
2022/10/08 11:33:25;;;;;;;4.35;0.60;;;23.70;63.40;;;;;;5036214;28;20078;-79
2022/10/08 11:36:12;;;;;;;4.68;0.80;;;24.00;61.20;;;;;;5003369;28;20128;-79
2022/10/08 11:39:20;;;;;;;6.57;0.88;;;23.60;58.10;;;;;;5036389;28;20035;-79
2022/10/08 11:41:49;;;;;;;5.28;0.70;;;22.80;56.20;;;;;;4998515;28;20048;-81
2022/10/08 11:44:16;;;;;;;5.28;0.70;;;22.10;58.30;;;;;;5054086;28;20025;-80
2022/10/08 11:46:41;;;;;;;4.80;0.98;;;22.20;59.00;;;;;;5003270;28;20051;-80
2022/10/08 11:49:10;;;;;;;3.58;0.60;;;22.60;58.90;;;;;;5019610;28;20025;-80
2022/10/08 11:51:38;;;;;;;3.97;0.60;;;23.10;58.40;;;;;;5054216;28;20017;-80
2022/10/08 11:54:29;;;;;;;4.28;0.77;;;23.70;57.90;;;;;;5053932;28;20120;-81
2022/10/08 11:57:16;;;;;;;5.55;0.77;;;24.00;56.30;;;;;;5053656;28;20021;-82
2022/10/08 11:59:57;;;;;;;5.00;0.50;;;24.50;55.30;;;;;;5053880;28;20037;-81
2022/10/08 12:02:37;;;;;;;4.97;0.60;;;24.90;54.60;;;;;;5035850;28;20082;-81
2022/10/08 12:05:21;;;;;;;3.22;0.60;;;25.20;53.20;;;;;;5012998;28;20029;-81
2022/10/08 12:07:55;;;;;;;5.97;0.77;;;25.70;52.10;;;;;;5013784;28;20092;-80
2022/10/08 12:10:32;;;;;;;4.32;0.85;;;26.10;51.20;;;;;;5013898;28;20482;-80
2022/10/08 12:13:08;;;;;;;4.63;0.55;;;26.30;50.40;;;;;;5012962;28;20033;-81
2022/10/08 12:15:37;;;;;;;4.97;0.60;;;26.60;49.50;;;;;;5010551;28;20022;-79
2022/10/08 12:18:26;;;;;;;6.05;0.60;;;26.90;48.40;;;;;;5011676;28;20109;-81
2022/10/08 12:21:16;;;;;;;5.85;0.82;;;27.10;47.20;;;;;;5013697;28;20493;-82
2022/10/08 12:23:43;;;;;;;6.10;0.98;;;27.30;46.50;;;;;;5011794;28;20091;-77
2022/10/08 12:26:14;;;;;;;7.35;0.90;;;27.30;45.10;;;;;;4996226;28;20132;-80
2022/10/08 12:28:49;;;;;;;5.07;0.73;;;27.00;44.50;;;;;;5012771;28;20022;-79
2022/10/08 12:31:32;;;;;;;6.45;0.73;;;27.00;45.10;;;;;;5014061;28;20069;-76
2022/10/08 12:34:01;;;;;;;4.85;0.77;;;27.00;44.80;;;;;;5012801;28;20022;-80
2022/10/08 12:36:50;;;;;;;4.07;0.90;;;27.00;44.30;;;;;;5013891;28;20095;-79
2022/10/08 12:39:39;;;;;;;4.88;0.75;;;26.90;43.60;;;;;;5012141;28;20065;-81
2022/10/08 12:42:19;;;;;;;4.03;0.60;;;26.80;42.90;;;;;;5028641;28;20022;-78
2022/10/08 12:45:20;;;;;;;3.95;0.65;;;26.70;43.60;;;;;;5013632;28;20026;-80
2022/10/08 12:47:58;;;;;;;5.88;0.90;;;26.80;43.70;;;;;;5003940;28;20049;-79
2022/10/08 12:50:51;;;;;;;7.95;0.73;;;26.90;43.80;;;;;;5028864;28;20026;-79
2022/10/08 12:53:17;;;;;;;3.03;0.60;;;27.00;43.70;;;;;;5012477;28;20128;-78
2022/10/08 12:55:56;;;;;;;5.97;0.75;;;27.00;42.80;;;;;;5013273;28;20025;-80
2022/10/08 12:58:36;;;;;;;5.30;0.75;;;27.00;42.40;;;;;;5012191;28;20022;-79
2022/10/08 13:01:04;;;;;;;5.60;0.57;;;27.00;41.80;;;;;;5013550;28;20089;-80
2022/10/08 13:03:29;;;;;;;7.53;0.77;;;26.90;41.80;;;;;;5020059;28;20053;-77
2022/10/08 13:05:57;;;;;;;6.90;0.98;;;26.80;41.70;;;;;;5015334;28;20029;-81
2022/10/08 13:08:33;;;;;;;8.93;0.82;;;26.80;42.20;;;;;;5033118;28;20032;-80
2022/10/08 13:11:02;;;;;;;6.18;0.70;;;27.00;42.30;;;;;;5032165;28;20022;-82